Time;durP1;ratioP1;P1;durP2;ratioP2;P2;SDS_P1;SDS_P2;PMS_P1;PMS_P2;Temp;Humidity;BMP_temperature;BMP_pressure;BME280_temperature;BME280_humidity;BME280_pressure;Samples;Min_cycle;Max_cycle;Signal;HPM_P1;HPM_P2
2023/09/12 00:01:07;;;;;;;;;;;;;;;20.31;40.10;95297.94;4995691;28;20396;-68
2023/09/12 00:03:32;;;;;;;;;;;;;;;20.26;40.48;95295.97;4993986;28;19930;-68
2023/09/12 00:05:58;;;;;;;;;;;;;;;20.25;40.49;95294.34;4998275;28;20735;-67
2023/09/12 00:08:23;;;;;;;;;;;;;;;20.27;40.92;95289.53;4994749;28;20398;-67
2023/09/12 00:11:18;;;;;;;;;;;;;;;20.30;40.49;95289.03;4994259;28;19922;-68
2023/09/12 00:13:44;;;;;;;;;;;;;;;20.28;40.83;95285.75;4990452;28;20352;-67
2023/09/12 00:16:12;;;;;;;;;;;;;;;20.26;40.96;95287.84;4995226;28;19922;-67
2023/09/12 00:18:37;;;;;;;;;;;;;;;20.29;40.78;95284.66;4994878;28;19928;-68
2023/09/12 00:21:03;;;;;;;;;;;;;;;20.40;40.15;95288.34;4998919;28;20673;-67
2023/09/12 00:23:28;;;;;;;;;;;;;;;20.26;41.49;95287.84;4995186;28;20060;-68
2023/09/12 00:25:53;;;;;;;;;;;;;;;20.12;40.97;95281.19;4995113;28;19936;-67
2023/09/12 00:28:19;;;;;;;;;;;;;;;20.16;41.19;95277.72;4995052;28;19969;-68
2023/09/12 00:30:44;;;;;;;;;;;;;;;20.28;40.87;95271.41;4995310;28;20048;-67
2023/09/12 00:33:09;;;;;;;;;;;;;;;20.34;41.03;95275.81;4994762;28;20656;-68
2023/09/12 00:35:34;;;;;;;;;;;;;;;20.34;41.31;95268.53;4994284;28;20011;-67
2023/09/12 00:38:00;;;;;;;;;;;;;;;20.35;41.31;95266.63;4994212;28;20357;-68
2023/09/12 00:40:25;;;;;;;;;;;;;;;20.38;41.17;95257.22;4994419;28;20196;-67
2023/09/12 00:42:50;;;;;;;;;;;;;;;20.35;41.64;95261.22;4994459;28;19971;-67
2023/09/12 00:45:16;;;;;;;;;;;;;;;20.34;41.73;95257.72;4994636;28;19948;-68
2023/09/12 00:47:41;;;;;;;;;;;;;;;20.33;41.53;95260.69;4994446;28;19926;-68
2023/09/12 00:50:06;;;;;;;;;;;;;;;20.35;41.19;95258.53;4994028;28;20001;-68
2023/09/12 00:52:33;;;;;;;;;;;;;;;20.31;41.54;95247.41;4994288;28;19922;-68
2023/09/12 00:54:58;;;;;;;;;;;;;;;20.36;41.46;95255.56;4994457;28;20359;-68
2023/09/12 00:57:23;;;;;;;;;;;;;;;20.38;41.38;95257.22;4995149;28;19921;-67
2023/09/12 00:59:49;;;;;;;;;;;;;;;20.37;41.55;95253.69;4993480;28;20438;-67
2023/09/12 01:02:14;;;;;;;;;;;;;;;20.38;40.84;95252.63;4994761;28;19951;-69
2023/09/12 01:04:39;;;;;;;;;;;;;;;20.40;41.22;95257.78;4996223;28;19967;-68
2023/09/12 01:07:05;;;;;;;;;;;;;;;20.40;41.21;95255.91;4994012;28;19925;-67
2023/09/12 01:09:30;;;;;;;;;;;;;;;20.39;41.51;95248.84;4994128;28;20442;-68
2023/09/12 01:11:56;;;;;;;;;;;;;;;20.40;41.20;95246.97;4993379;28;19959;-68
2023/09/12 01:14:21;;;;;;;;;;;;;;;20.35;41.95;95237.72;4994623;28;20386;-68
2023/09/12 01:16:46;;;;;;;;;;;;;;;20.34;41.52;95237.97;4993796;28;20043;-68
2023/09/12 01:19:14;;;;;;;;;;;;;;;20.34;41.82;95241.50;4991615;28;20020;-68
2023/09/12 01:21:39;;;;;;;;;;;;;;;20.34;41.36;95244.22;4993092;28;19929;-68
2023/09/12 01:24:04;;;;;;;;;;;;;;;20.39;41.18;95245.34;4994139;28;19925;-68
2023/09/12 01:26:35;;;;;;;;;;;;;;;20.38;41.40;95246.41;4994697;28;19917;-67
2023/09/12 01:29:01;;;;;;;;;;;;;;;20.32;41.57;95238.22;4993632;28;19966;-68
2023/09/12 01:31:26;;;;;;;;;;;;;;;20.33;41.20;95231.75;4993856;28;20409;-67
2023/09/12 01:33:55;;;;;;;;;;;;;;;20.32;41.86;95234.69;4993790;28;19965;-68
2023/09/12 01:36:20;;;;;;;;;;;;;;;20.32;41.27;95229.28;4993438;28;19964;-68
2023/09/12 01:38:46;;;;;;;;;;;;;;;20.30;41.97;95234.97;4993355;28;20367;-68
2023/09/12 01:41:11;;;;;;;;;;;;;;;20.28;41.83;95234.38;4985955;28;20071;-69
2023/09/12 01:43:36;;;;;;;;;;;;;;;20.28;41.59;95226.28;4992385;28;20011;-68
2023/09/12 01:46:02;;;;;;;;;;;;;;;20.26;41.79;95231.09;4991913;28;19929;-69
2023/09/12 01:48:30;;;;;;;;;;;;;;;20.26;41.95;95236.50;4992977;28;20181;-68
2023/09/12 01:50:55;;;;;;;;;;;;;;;20.24;42.00;95241.38;4993900;28;20398;-68
2023/09/12 01:53:20;;;;;;;;;;;;;;;20.21;41.23;95237.28;4994278;28;20007;-69
2023/09/12 01:55:46;;;;;;;;;;;;;;;20.23;41.01;95234.34;4993398;28;19972;-69
2023/09/12 01:58:11;;;;;;;;;;;;;;;20.19;42.38;95238.59;4991800;28;20650;-68
2023/09/12 02:00:37;;;;;;;;;;;;;;;20.11;42.26;95231.72;4991594;28;19964;-68
2023/09/12 02:03:03;;;;;;;;;;;;;;;20.12;42.19;95237.97;4992130;28;20496;-68
2023/09/12 02:05:28;;;;;;;;;;;;;;;20.14;42.04;95241.22;4995359;28;19921;-69
2023/09/12 02:07:53;;;;;;;;;;;;;;;20.14;42.60;95235.81;4993641;28;19968;-68
2023/09/12 02:10:18;;;;;;;;;;;;;;;20.09;42.68;95234.69;4992307;28;20167;-68
2023/09/12 02:12:44;;;;;;;;;;;;;;;20.00;43.47;95233.47;4993837;28;19934;-68
2023/09/12 02:15:09;;;;;;;;;;;;;;;19.98;42.93;95232.88;4993369;28;19977;-69
2023/09/12 02:17:34;;;;;;;;;;;;;;;19.92;43.39;95239.28;4992495;28;19978;-68
2023/09/12 02:20:00;;;;;;;;;;;;;;;19.95;42.81;95238.75;4993085;28;19976;-68
2023/09/12 02:22:25;;;;;;;;;;;;;;;19.94;42.47;95237.13;4998417;28;20304;-69
2023/09/12 02:24:50;;;;;;;;;;;;;;;19.92;42.72;95236.56;4992933;28;19925;-71
2023/09/12 02:27:15;;;;;;;;;;;;;;;19.88;42.63;95225.44;4992862;28;19928;-69
2023/09/12 02:29:41;;;;;;;;;;;;;;;19.88;43.12;95224.63;4993348;28;19921;-70
2023/09/12 02:32:06;;;;;;;;;;;;;;;19.85;43.40;95229.44;4992584;28;20066;-70
2023/09/12 02:34:32;;;;;;;;;;;;;;;19.87;43.04;95226.50;4992824;28;19991;-70
2023/09/12 02:36:57;;;;;;;;;;;;;;;19.85;42.91;95224.03;4989928;28;20039;-69
2023/09/12 02:39:22;;;;;;;;;;;;;;;19.84;42.81;95225.13;4992757;28;19992;-69
2023/09/12 02:41:48;;;;;;;;;;;;;;;19.85;42.55;95215.94;4987128;28;20445;-70
2023/09/12 02:44:13;;;;;;;;;;;;;;;19.89;42.58;95218.97;4992229;28;19929;-69
2023/09/12 02:46:38;;;;;;;;;;;;;;;19.91;42.73;95218.69;4993442;28;19956;-69
2023/09/12 02:49:04;;;;;;;;;;;;;;;19.92;42.95;95217.66;4992719;28;20008;-69
2023/09/12 02:51:29;;;;;;;;;;;;;;;19.94;42.69;95218.22;4994879;28;20025;-69
2023/09/12 02:53:54;;;;;;;;;;;;;;;19.92;42.88;95214.97;4992918;28;19929;-69
2023/09/12 02:56:20;;;;;;;;;;;;;;;20.00;42.00;95221.84;4992555;28;20433;-68
2023/09/12 02:58:48;;;;;;;;;;;;;;;20.00;42.08;95225.38;4988819;28;20298;-69
2023/09/12 03:01:16;;;;;;;;;;;;;;;19.99;42.06;95220.22;4983310;28;19929;-69
2023/09/12 03:03:42;;;;;;;;;;;;;;;19.97;42.35;95220.47;4985372;28;19936;-69
2023/09/12 03:06:07;;;;;;;;;;;;;;;19.96;42.55;95221.53;4988386;28;20043;-69
2023/09/12 03:08:32;;;;;;;;;;;;;;;19.99;42.19;95217.50;4980851;28;19960;-69
2023/09/12 03:10:57;;;;;;;;;;;;;;;19.99;42.52;95218.34;4980997;28;19922;-69
2023/09/12 03:13:24;;;;;;;;;;;;;;;19.97;42.65;95215.06;4982374;28;20275;-69
2023/09/12 03:15:49;;;;;;;;;;;;;;;19.96;42.68;95208.81;4984215;28;19941;-69
2023/09/12 03:18:14;;;;;;;;;;;;;;;19.95;42.58;95214.44;4986440;28;19987;-70
2023/09/12 03:20:39;;;;;;;;;;;;;;;19.90;42.15;95208.97;4984020;28;20183;-69
2023/09/12 03:23:04;;;;;;;;;;;;;;;19.91;42.48;95205.19;4987799;28;19980;-69
2023/09/12 03:25:30;;;;;;;;;;;;;;;19.93;42.58;95208.47;4985156;28;19965;-68
2023/09/12 03:27:55;;;;;;;;;;;;;;;19.97;42.26;95217.75;4988221;28;20403;-68
2023/09/12 03:30:21;;;;;;;;;;;;;;;19.94;42.82;95202.00;4986622;28;20556;-68
2023/09/12 03:32:46;;;;;;;;;;;;;;;19.82;42.92;95212.94;4981035;28;19926;-68
2023/09/12 03:35:11;;;;;;;;;;;;;;;19.85;42.76;95215.13;4985988;28;20252;-68
2023/09/12 03:37:40;;;;;;;;;;;;;;;19.92;41.63;95214.97;4988709;28;19922;-69
2023/09/12 03:40:06;;;;;;;;;;;;;;;19.95;41.43;95217.97;4990120;28;20008;-69
2023/09/12 03:42:31;;;;;;;;;;;;;;;19.79;41.32;95216.13;4986594;28;19917;-69
2023/09/12 03:44:57;;;;;;;;;;;;;;;19.72;41.67;95210.91;4988054;28;19983;-68
2023/09/12 03:47:22;;;;;;;;;;;;;;;19.81;41.49;95216.66;4993797;28;19974;-68
2023/09/12 03:49:47;;;;;;;;;;;;;;;19.89;41.39;95212.75;4997420;28;20437;-68
2023/09/12 03:52:12;;;;;;;;;;;;;;;19.99;40.76;95221.03;4997320;28;19926;-68
2023/09/12 03:54:38;;;;;;;;;;;;;;;19.76;41.16;95214.72;4997530;28;20316;-69
2023/09/12 03:57:03;;;;;;;;;;;;;;;19.33;42.82;95225.09;4995865;28;19926;-70
2023/09/12 03:59:28;;;;;;;;;;;;;;;19.03;43.65;95227.00;4995388;28;19921;-69
2023/09/12 04:01:53;;;;;;;;;;;;;;;19.23;43.30;95220.31;4993938;28;19959;-69
2023/09/12 04:04:19;;;;;;;;;;;;;;;18.93;44.63;95216.84;4995673;28;20154;-69
2023/09/12 04:06:44;;;;;;;;;;;;;;;18.68;45.56;95212.63;4997168;28;19931;-69
2023/09/12 04:09:09;;;;;;;;;;;;;;;18.30;46.42;95208.59;4994476;28;19935;-69
2023/09/12 04:11:34;;;;;;;;;;;;;;;18.64;45.79;95210.63;4993025;28;19921;-70
2023/09/12 04:14:00;;;;;;;;;;;;;;;18.82;45.35;95210.44;4995564;28;20532;-69
2023/09/12 04:16:25;;;;;;;;;;;;;;;18.78;45.97;95200.38;4994808;28;20225;-70
2023/09/12 04:18:50;;;;;;;;;;;;;;;18.73;46.76;95200.28;4994916;28;19984;-69
2023/09/12 04:21:15;;;;;;;;;;;;;;;18.88;45.17;95188.97;4996690;28;19980;-69
2023/09/12 04:23:41;;;;;;;;;;;;;;;19.02;44.62;95192.16;4995109;28;20415;-70
2023/09/12 04:26:06;;;;;;;;;;;;;;;19.06;45.17;95186.06;4995240;28;20499;-70
2023/09/12 04:28:31;;;;;;;;;;;;;;;19.07;45.42;95193.06;4994333;28;19964;-70
2023/09/12 04:31:03;;;;;;;;;;;;;;;19.04;44.57;95184.66;4994449;28;19921;-69
2023/09/12 04:33:28;;;;;;;;;;;;;;;19.01;45.43;95188.69;4993498;28;20219;-70
2023/09/12 04:35:53;;;;;;;;;;;;;;;18.99;44.37;95182.69;4994926;28;20476;-70
2023/09/12 04:38:20;;;;;;;;;;;;;;;18.95;44.97;95187.75;4994879;28;19921;-69
2023/09/12 04:40:53;;;;;;;;;;;;;;;18.91;44.43;95180.38;4994972;28;19976;-69
2023/09/12 04:43:18;;;;;;;;;;;;;;;18.84;44.23;95182.41;4994670;28;20008;-69
2023/09/12 04:45:43;;;;;;;;;;;;;;;18.79;44.25;95175.03;4994647;28;19979;-69
2023/09/12 04:48:08;;;;;;;;;;;;;;;18.74;44.49;95178.47;4994232;28;20074;-69
2023/09/12 04:50:34;;;;;;;;;;;;;;;18.71;44.68;95186.22;4997911;28;20059;-69
2023/09/12 04:52:59;;;;;;;;;;;;;;;18.67;44.48;95185.91;4994460;28;19979;-70
2023/09/12 04:55:24;;;;;;;;;;;;;;;18.68;43.77;95190.22;4994542;28;19999;-69
2023/09/12 04:57:49;;;;;;;;;;;;;;;18.61;44.14;95186.84;4994837;28;19921;-69
2023/09/12 05:00:15;;;;;;;;;;;;;;;18.56;44.18;95193.75;4994039;28;19988;-69
2023/09/12 05:02:40;;;;;;;;;;;;;;;18.53;44.02;95190.72;4994186;28;19932;-69
2023/09/12 05:05:05;;;;;;;;;;;;;;;18.50;44.35;95192.03;4998200;28;19972;-69
2023/09/12 05:07:30;;;;;;;;;;;;;;;18.49;44.26;95186.88;4994256;28;20027;-69
2023/09/12 05:09:56;;;;;;;;;;;;;;;18.44;44.46;95185.72;4991241;28;20402;-69
2023/09/12 05:12:21;;;;;;;;;;;;;;;18.42;44.16;95187.81;4994453;28;19925;-68
2023/09/12 05:14:46;;;;;;;;;;;;;;;18.39;44.20;95185.59;4991118;28;19921;-69
2023/09/12 05:17:11;;;;;;;;;;;;;;;18.37;43.98;95184.19;4994285;28;20061;-69
2023/09/12 05:19:37;;;;;;;;;;;;;;;18.33;44.22;95189.25;4994064;28;20020;-68
2023/09/12 05:22:02;;;;;;;;;;;;;;;18.31;44.23;95199.44;4994326;28;19921;-68
2023/09/12 05:24:27;;;;;;;;;;;;;;;18.29;43.95;95198.88;4994218;28;20323;-68
2023/09/12 05:26:53;;;;;;;;;;;;;;;18.24;44.42;95194.19;4993739;28;20364;-67
2023/09/12 05:29:18;;;;;;;;;;;;;;;18.26;44.83;95194.75;4993472;28;20064;-68
2023/09/12 05:31:43;;;;;;;;;;;;;;;18.25;44.58;95200.41;4993763;28;19932;-68
2023/09/12 05:34:09;;;;;;;;;;;;;;;18.23;44.77;95200.66;4994366;28;20043;-68
2023/09/12 05:36:34;;;;;;;;;;;;;;;18.25;44.54;95201.22;4992768;28;19925;-68
2023/09/12 05:38:59;;;;;;;;;;;;;;;18.27;44.48;95201.81;4993467;28;19925;-69
2023/09/12 05:41:24;;;;;;;;;;;;;;;18.30;44.62;95195.13;4994222;28;20619;-68
2023/09/12 05:43:49;;;;;;;;;;;;;;;18.31;44.46;95194.06;4989727;28;20494;-69
2023/09/12 05:46:15;;;;;;;;;;;;;;;18.31;44.67;95197.56;4993967;28;20602;-67
2023/09/12 05:48:40;;;;;;;;;;;;;;;18.31;44.63;95189.50;4993404;28;20402;-69
2023/09/12 05:51:05;;;;;;;;;;;;;;;18.34;44.22;95188.19;4995231;28;19984;-68
2023/09/12 05:53:31;;;;;;;;;;;;;;;18.40;44.35;95189.94;4992506;28;20441;-68
2023/09/12 05:55:56;;;;;;;;;;;;;;;18.51;44.06;95195.53;4993463;28;20242;-68
2023/09/12 05:58:21;;;;;;;;;;;;;;;18.55;44.10;95189.41;4993625;28;19925;-69
2023/09/12 06:00:47;;;;;;;;;;;;;;;18.64;43.76;95189.06;4986408;28;20105;-69
2023/09/12 06:03:13;;;;;;;;;;;;;;;18.77;43.89;95188.75;4992777;28;20381;-67
2023/09/12 06:05:39;;;;;;;;;;;;;;;18.89;43.84;95190.59;4989352;28;19929;-68
2023/09/12 06:08:04;;;;;;;;;;;;;;;18.99;43.68;95189.94;4992150;28;19940;-69
2023/09/12 06:10:30;;;;;;;;;;;;;;;19.11;43.32;95192.59;4993461;28;19921;-69
2023/09/12 06:12:55;;;;;;;;;;;;;;;19.25;42.91;95188.53;4990783;28;19929;-67
2023/09/12 06:15:20;;;;;;;;;;;;;;;19.32;43.52;95196.50;4992177;28;20306;-68
2023/09/12 06:17:45;;;;;;;;;;;;;;;19.43;43.61;95201.00;4992501;28;20140;-68
2023/09/12 06:20:11;;;;;;;;;;;;;;;19.56;42.92;95201.72;4992405;28;19921;-68
2023/09/12 06:22:36;;;;;;;;;;;;;;;19.77;42.54;95200.16;4995868;28;20400;-69
2023/09/12 06:25:01;;;;;;;;;;;;;;;20.01;42.34;95201.84;4991322;28;19947;-68
2023/09/12 06:27:26;;;;;;;;;;;;;;;20.24;42.00;95208.94;4993181;28;20195;-69
2023/09/12 06:29:52;;;;;;;;;;;;;;;20.42;41.25;95213.22;4991210;28;19925;-69
2023/09/12 06:32:17;;;;;;;;;;;;;;;20.57;41.33;95217.97;4993121;28;19955;-69
2023/09/12 06:34:42;;;;;;;;;;;;;;;20.69;41.14;95214.34;4993608;28;20391;-67
2023/09/12 06:37:08;;;;;;;;;;;;;;;20.80;40.33;95205.28;4990364;28;19984;-68
2023/09/12 06:39:33;;;;;;;;;;;;;;;20.96;39.83;95208.97;4992802;28;20027;-68
2023/09/12 06:41:58;;;;;;;;;;;;;;;20.91;41.71;95211.66;4986660;28;20015;-76
2023/09/12 06:44:24;;;;;;;;;;;;;;;20.82;42.47;95203.16;4991663;28;20449;-77
2023/09/12 06:46:49;;;;;;;;;;;;;;;20.74;42.13;95204.41;4992784;28;20362;-76
2023/09/12 06:49:14;;;;;;;;;;;;;;;20.89;42.30;95211.06;4992574;28;20628;-77
2023/09/12 06:51:39;;;;;;;;;;;;;;;21.05;41.63;95217.47;4995371;28;19921;-76
2023/09/12 06:54:05;;;;;;;;;;;;;;;21.28;40.84;95218.22;4995257;28;19933;-77
2023/09/12 06:56:30;;;;;;;;;;;;;;;21.46;41.84;95206.22;4992200;28;19929;-76
2023/09/12 06:58:56;;;;;;;;;;;;;;;21.56;41.96;95216.31;4991201;28;19921;-75
2023/09/12 07:01:21;;;;;;;;;;;;;;;21.57;41.52;95209.00;4993206;28;19932;-76
2023/09/12 07:03:46;;;;;;;;;;;;;;;21.73;39.14;95218.88;4993004;28;19933;-76
2023/09/12 07:06:12;;;;;;;;;;;;;;;21.84;39.77;95216.22;4996069;28;19928;-76
2023/09/12 07:08:37;;;;;;;;;;;;;;;21.87;40.62;95216.53;4993048;28;20213;-76
2023/09/12 07:11:05;;;;;;;;;;;;;;;21.97;39.29;95217.69;4970212;28;19917;-75
2023/09/12 07:13:31;;;;;;;;;;;;;;;22.06;39.99;95223.47;4990223;28;19925;-76
2023/09/12 07:15:56;;;;;;;;;;;;;;;22.21;39.55;95228.13;4992971;28;19921;-75
2023/09/12 07:18:21;;;;;;;;;;;;;;;22.25;38.12;95226.53;4991601;28;20393;-76
2023/09/12 07:20:47;;;;;;;;;;;;;;;22.30;38.10;95225.75;4994437;28;20132;-76
2023/09/12 07:23:12;;;;;;;;;;;;;;;22.51;37.27;95230.19;4975492;28;19996;-76
2023/09/12 07:25:38;;;;;;;;;;;;;;;22.82;36.88;95232.25;4994550;28;19975;-77
2023/09/12 07:28:03;;;;;;;;;;;;;;;23.04;37.73;95229.31;4994078;28;19925;-78
2023/09/12 07:30:30;;;;;;;;;;;;;;;23.29;36.43;95218.78;4995937;28;19917;-79
2023/09/12 07:32:55;;;;;;;;;;;;;;;23.42;35.58;95220.97;4999693;28;19925;-79
2023/09/12 07:35:23;;;;;;;;;;;;;;;23.28;35.04;95219.84;5002135;28;19921;-78
2023/09/12 07:37:49;;;;;;;;;;;;;;;23.35;35.50;95212.25;4999546;28;20257;-79
2023/09/12 07:40:14;;;;;;;;;;;;;;;23.74;34.56;95204.69;5003030;28;19957;-78
2023/09/12 07:42:39;;;;;;;;;;;;;;;23.87;34.70;95203.31;5001612;28;20421;-78
2023/09/12 07:45:05;;;;;;;;;;;;;;;23.91;35.37;95205.22;5000248;28;20411;-79
2023/09/12 07:47:30;;;;;;;;;;;;;;;24.25;34.36;95206.50;4999235;28;19929;-78
2023/09/12 07:49:55;;;;;;;;;;;;;;;24.25;34.37;95214.66;5004705;28;20146;-79
2023/09/12 07:52:21;;;;;;;;;;;;;;;24.50;34.63;95218.41;4988956;28;19921;-78
2023/09/12 07:54:46;;;;;;;;;;;;;;;24.71;33.58;95219.13;4974543;28;20329;-72
2023/09/12 07:57:11;;;;;;;;;;;;;;;24.92;33.21;95226.41;4993796;28;20392;-72
2023/09/12 07:59:36;;;;;;;;;;;;;;;24.95;33.20;95220.41;4994117;28;19965;-72
2023/09/12 08:02:02;;;;;;;;;;;;;;;25.04;32.90;95217.88;4994707;28;19964;-72
2023/09/12 08:04:27;;;;;;;;;;;;;;;25.07;32.51;95211.88;4995590;28;19999;-72
2023/09/12 08:06:52;;;;;;;;;;;;;;;25.32;32.53;95226.44;4995831;28;19933;-72
2023/09/12 08:09:17;;;;;;;;;;;;;;;25.00;32.55;95227.72;4995603;28;20381;-72
2023/09/12 08:11:43;;;;;;;;;;;;;;;24.97;33.25;95234.53;4990023;28;20365;-72
2023/09/12 08:14:08;;;;;;;;;;;;;;;25.18;33.00;95229.78;4991566;28;20008;-72
2023/09/12 08:16:33;;;;;;;;;;;;;;;25.41;32.06;95234.81;4994650;28;19965;-71
2023/09/12 08:18:58;;;;;;;;;;;;;;;25.60;32.65;95237.72;4995185;28;20218;-71
2023/09/12 08:21:24;;;;;;;;;;;;;;;25.66;33.00;95244.72;4995422;28;19930;-72
2023/09/12 08:23:49;;;;;;;;;;;;;;;25.90;32.02;95237.72;4995177;28;20319;-72
2023/09/12 08:26:14;;;;;;;;;;;;;;;25.98;31.25;95237.09;4994482;28;19968;-72
2023/09/12 08:28:40;;;;;;;;;;;;;;;26.21;30.97;95232.78;4994960;28;19976;-72
2023/09/12 08:31:05;;;;;;;;;;;;;;;26.27;31.25;95239.00;4993241;28;19930;-72
2023/09/12 08:33:31;;;;;;;;;;;;;;;26.22;30.45;95239.06;4994434;28;19921;-72
2023/09/12 08:35:56;;;;;;;;;;;;;;;26.08;30.80;95234.31;4996054;28;19968;-71
2023/09/12 08:38:21;;;;;;;;;;;;;;;25.63;31.72;95245.31;4994758;28;20007;-71
2023/09/12 08:40:50;;;;;;;;;;;;;;;26.08;31.86;95247.94;4995864;28;19921;-72
2023/09/12 08:43:15;;;;;;;;;;;;;;;26.37;30.84;95243.53;4995160;28;20122;-71
2023/09/12 08:45:43;;;;;;;;;;;;;;;26.76;31.34;95247.22;4996028;28;20129;-72
2023/09/12 08:48:08;;;;;;;;;;;;;;;26.92;30.17;95247.81;4991564;28;20397;-71
2023/09/12 08:50:34;;;;;;;;;;;;;;;27.00;30.75;95246.38;4997029;28;19921;-72
2023/09/12 08:52:59;;;;;;;;;;;;;;;26.95;29.89;95243.72;4995045;28;20361;-71
2023/09/12 08:55:24;;;;;;;;;;;;;;;27.06;29.65;95244.38;4992754;28;20482;-72
2023/09/12 08:57:50;;;;;;;;;;;;;;;26.96;31.14;95251.63;4993977;28;20024;-71
2023/09/12 09:00:15;;;;;;;;;;;;;;;27.14;30.50;95254.66;4994190;28;20485;-72
2023/09/12 09:02:41;;;;;;;;;;;;;;;25.59;32.26;95252.41;4992118;28;19936;-72
2023/09/12 09:05:06;;;;;;;;;;;;;;;25.63;32.72;95255.41;4995313;28;20013;-72
2023/09/12 09:07:41;;;;;;;;;;;;;;;25.98;32.04;95265.19;4994863;28;20004;-72
2023/09/12 09:10:07;;;;;;;;;;;;;;;26.44;32.72;95252.19;4990598;28;19925;-71
2023/09/12 09:12:32;;;;;;;;;;;;;;;27.34;30.74;95261.78;4994409;28;20452;-72
2023/09/12 09:14:58;;;;;;;;;;;;;;;27.58;30.91;95262.78;4992167;28;20566;-72
2023/09/12 09:17:23;;;;;;;;;;;;;;;27.07;31.58;95262.38;4994078;28;19921;-72
2023/09/12 09:19:48;;;;;;;;;;;;;;;27.60;30.18;95269.56;4995084;28;19921;-72
2023/09/12 09:22:14;;;;;;;;;;;;;;;27.51;30.91;95261.25;4974958;28;19926;-71
2023/09/12 09:24:39;;;;;;;;;;;;;;;27.42;31.08;95249.34;4995195;28;19921;-71
2023/09/12 09:27:04;;;;;;;;;;;;;;;26.89;31.56;95259.34;4994737;28;20297;-71
2023/09/12 09:29:32;;;;;;;;;;;;;;;27.35;31.22;95254.38;4992613;28;19991;-72
2023/09/12 09:31:59;;;;;;;;;;;;;;;27.88;30.47;95263.44;4993662;28;20068;-71
2023/09/12 09:34:24;;;;;;;;;;;;;;;28.36;29.73;95267.81;4991460;28;19925;-72
2023/09/12 09:36:50;;;;;;;;;;;;;;;28.17;28.63;95265.13;4991652;28;20413;-72
2023/09/12 09:39:15;;;;;;;;;;;;;;;26.57;31.66;95260.81;4989724;28;20405;-72
2023/09/12 09:41:40;;;;;;;;;;;;;;;27.45;30.11;95256.97;4993885;28;20417;-72
2023/09/12 09:44:09;;;;;;;;;;;;;;;28.05;30.14;95262.88;4989099;28;20501;-72
2023/09/12 09:46:37;;;;;;;;;;;;;;;28.08;29.39;95265.00;4992411;28;20578;-71
2023/09/12 09:49:02;;;;;;;;;;;;;;;28.26;28.06;95268.00;4992197;28;19975;-73
2023/09/12 09:51:29;;;;;;;;;;;;;;;27.54;29.44;95261.75;4997067;28;19938;-73
2023/09/12 09:53:58;;;;;;;;;;;;;;;26.42;30.75;95262.59;4996613;28;19928;-73
2023/09/12 09:56:23;;;;;;;;;;;;;;;27.23;28.77;95266.56;4991530;28;19925;-73
2023/09/12 09:58:48;;;;;;;;;;;;;;;27.41;28.19;95272.31;4994534;28;19983;-73
2023/09/12 10:01:15;;;;;;;;;;;;;;;27.34;27.58;95272.69;4991934;28;20015;-73
2023/09/12 10:03:40;;;;;;;;;;;;;;;27.50;27.95;95264.28;4989110;28;19933;-73
2023/09/12 10:06:05;;;;;;;;;;;;;;;26.73;27.78;95256.81;4995823;28;20012;-73
2023/09/12 10:08:31;;;;;;;;;;;;;;;27.55;27.07;95255.16;4989775;28;19964;-73
2023/09/12 10:10:56;;;;;;;;;;;;;;;28.33;25.85;95257.47;4987043;28;19917;-73
2023/09/12 10:13:22;;;;;;;;;;;;;;;27.59;26.58;95264.38;4985270;28;20263;-73
2023/09/12 10:15:47;;;;;;;;;;;;;;;27.99;26.67;95258.59;4990820;28;19961;-73
2023/09/12 10:18:14;;;;;;;;;;;;;;;28.21;26.86;95259.88;4993464;28;20345;-73
2023/09/12 10:20:45;;;;;;;;;;;;;;;28.36;26.60;95262.34;4990014;28;20388;-73
2023/09/12 10:23:36;;;;;;;;;;;;;;;28.40;27.27;95260.63;4991706;28;19921;-73
2023/09/12 10:26:01;;;;;;;;;;;;;;;28.41;27.88;95262.22;4988866;28;19984;-73
2023/09/12 10:28:26;;;;;;;;;;;;;;;28.38;26.98;95265.56;4993363;28;19965;-73
2023/09/12 10:30:52;;;;;;;;;;;;;;;28.09;27.38;95250.19;4991051;28;19976;-73
2023/09/12 10:33:17;;;;;;;;;;;;;;;28.22;28.83;95256.84;4996271;28;19940;-73
2023/09/12 10:35:42;;;;;;;;;;;;;;;27.97;31.66;95253.41;4990688;28;20041;-73
2023/09/12 10:38:07;;;;;;;;;;;;;;;28.18;31.86;95252.28;4992286;28;19961;-73
2023/09/12 10:40:34;;;;;;;;;;;;;;;27.79;32.94;95260.56;4988909;28;19925;-73
2023/09/12 10:43:00;;;;;;;;;;;;;;;27.71;32.67;95251.13;4989882;28;19929;-72
2023/09/12 10:45:25;;;;;;;;;;;;;;;28.06;32.15;95250.81;4984493;28;20066;-73
2023/09/12 10:47:50;;;;;;;;;;;;;;;27.98;33.16;95249.59;4991618;28;19984;-72
2023/09/12 10:50:15;;;;;;;;;;;;;;;27.78;34.06;95248.78;4996227;28;20127;-73
2023/09/12 10:52:42;;;;;;;;;;;;;;;27.74;33.58;95242.31;4992919;28;19941;-74
2023/09/12 10:55:07;;;;;;;;;;;;;;;27.91;31.59;95251.91;4990461;28;19929;-73
2023/09/12 10:57:33;;;;;;;;;;;;;;;28.08;31.83;95251.31;4996608;28;19939;-72
2023/09/12 10:59:58;;;;;;;;;;;;;;;28.15;32.34;95245.47;4987489;28;19926;-73
2023/09/12 11:02:26;;;;;;;;;;;;;;;28.32;31.32;95244.91;4990071;28;20046;-73
2023/09/12 11:04:52;;;;;;;;;;;;;;;28.67;31.06;95244.50;4990956;28;22657;-73
2023/09/12 11:07:40;;;;;;;;;;;;;;;28.93;30.18;95246.72;4989982;28;20442;-73
2023/09/12 11:10:15;;;;;;;;;;;;;;;28.68;30.66;95246.13;4988682;28;20405;-73
2023/09/12 11:12:40;;;;;;;;;;;;;;;29.60;28.90;95247.16;4993631;28;20638;-72
2023/09/12 11:15:06;;;;;;;;;;;;;;;29.79;28.58;95241.53;4987926;28;19925;-72
2023/09/12 11:17:36;;;;;;;;;;;;;;;30.02;29.08;95247.00;4993564;28;19921;-72
2023/09/12 11:20:04;;;;;;;;;;;;;;;29.13;29.32;95234.50;4991789;28;20433;-72
2023/09/12 11:22:34;;;;;;;;;;;;;;;30.07;27.68;95237.81;4992407;28;19984;-72
2023/09/12 11:25:05;;;;;;;;;;;;;;;30.31;27.79;95245.69;4988366;28;20292;-71
2023/09/12 11:27:31;;;;;;;;;;;;;;;29.98;29.88;95246.00;4992947;28;20122;-72
2023/09/12 11:30:02;;;;;;;;;;;;;;;30.27;27.87;95243.91;4984871;28;20557;-72
2023/09/12 11:32:30;;;;;;;;;;;;;;;29.29;29.96;95239.66;4987921;28;19925;-72
2023/09/12 11:34:55;;;;;;;;;;;;;;;28.91;29.42;95240.72;4989499;28;20443;-72
2023/09/12 11:37:24;;;;;;;;;;;;;;;28.84;29.33;95232.13;4992327;28;20170;-72
2023/09/12 11:39:51;;;;;;;;;;;;;;;29.55;28.29;95244.53;4991790;28;19956;-72
2023/09/12 11:42:16;;;;;;;;;;;;;;;29.95;29.67;95246.63;4996368;28;19968;-72
2023/09/12 11:44:44;;;;;;;;;;;;;;;30.30;28.40;95252.31;4993387;28;20273;-72
2023/09/12 11:47:10;;;;;;;;;;;;;;;30.37;28.23;95248.28;4992839;28;19925;-72
2023/09/12 11:49:37;;;;;;;;;;;;;;;30.07;28.53;95243.28;4989126;28;19926;-72
2023/09/12 11:52:02;;;;;;;;;;;;;;;29.38;29.30;95251.53;4992100;28;20326;-72
2023/09/12 11:54:28;;;;;;;;;;;;;;;29.43;29.68;95256.06;4997281;28;19947;-71
2023/09/12 11:56:59;;;;;;;;;;;;;;;28.70;30.27;95260.34;4990000;28;20474;-71
2023/09/12 11:59:24;;;;;;;;;;;;;;;28.40;30.58;95257.88;4994316;28;19922;-73
2023/09/12 12:01:49;;;;;;;;;;;;;;;28.41;31.01;95259.50;4991157;28;20122;-72
2023/09/12 12:04:15;;;;;;;;;;;;;;;28.61;30.88;95251.16;4994955;28;20763;-72
2023/09/12 12:06:40;;;;;;;;;;;;;;;28.70;29.77;95238.44;4995900;28;19921;-73
2023/09/12 12:09:05;;;;;;;;;;;;;;;28.33;30.75;95251.16;4996409;28;19930;-71
2023/09/12 12:11:31;;;;;;;;;;;;;;;27.82;33.10;95248.19;4990297;28;20042;-70
2023/09/12 12:13:57;;;;;;;;;;;;;;;27.91;31.83;95249.16;4996112;28;20157;-69
2023/09/12 12:16:22;;;;;;;;;;;;;;;27.98;30.48;95249.59;4994182;28;20174;-71
2023/09/12 12:18:47;;;;;;;;;;;;;;;27.80;31.28;95248.50;4992367;28;19921;-71
2023/09/12 12:21:13;;;;;;;;;;;;;;;27.62;30.72;95252.88;4987082;28;20461;-69
2023/09/12 12:23:38;;;;;;;;;;;;;;;27.56;31.41;95248.59;4986238;28;19975;-71
2023/09/12 12:26:10;;;;;;;;;;;;;;;27.35;31.17;95252.47;4992120;28;20199;-71
2023/09/12 12:28:35;;;;;;;;;;;;;;;26.96;32.50;95245.34;4989369;28;20422;-72
2023/09/12 12:31:01;;;;;;;;;;;;;;;26.64;33.63;95255.81;4990022;28;19921;-71
2023/09/12 12:33:27;;;;;;;;;;;;;;;26.61;32.64;95250.94;4993788;28;19917;-70
2023/09/12 12:36:18;;;;;;;;;;;;;;;26.24;33.51;95239.59;4992814;28;19926;-68
2023/09/12 12:38:44;;;;;;;;;;;;;;;26.10;34.14;95237.56;4991315;28;19952;-71
2023/09/12 12:41:09;;;;;;;;;;;;;;;26.08;34.41;95231.59;4997282;28;19940;-78